sensor_id;sensor_type;location;lat;lon;timestamp;P1;durP1;ratioP1;P2;durP2;ratioP2
13493;SDS011;6819;50.886;4.332;2024-03-23T00:52:45;7.70;;;2.83;;
13493;SDS011;6819;50.886;4.332;2024-03-23T00:55:11;6.80;;;2.85;;
13493;SDS011;6819;50.886;4.332;2024-03-23T00:57:37;8.60;;;2.60;;
13493;SDS011;6819;50.886;4.332;2024-03-23T01:00:04;8.57;;;2.85;;
13493;SDS011;6819;50.886;4.332;2024-03-23T01:02:31;11.90;;;2.65;;
13493;SDS011;6819;50.886;4.332;2024-03-23T01:04:57;12.25;;;2.38;;
13493;SDS011;6819;50.886;4.332;2024-03-23T01:07:23;7.95;;;3.13;;
13493;SDS011;6819;50.886;4.332;2024-03-23T01:09:49;6.20;;;2.70;;
13493;SDS011;6819;50.886;4.332;2024-03-23T01:12:17;11.35;;;2.72;;
13493;SDS011;6819;50.886;4.332;2024-03-23T01:14:43;6.30;;;2.70;;
13493;SDS011;6819;50.886;4.332;2024-03-23T01:17:09;7.07;;;2.83;;
13493;SDS011;6819;50.886;4.332;2024-03-23T01:19:35;6.10;;;2.65;;
13493;SDS011;6819;50.886;4.332;2024-03-23T01:22:01;9.40;;;2.90;;
13493;SDS011;6819;50.886;4.332;2024-03-23T01:24:27;10.80;;;2.95;;
13493;SDS011;6819;50.886;4.332;2024-03-23T01:26:53;5.07;;;2.78;;
13493;SDS011;6819;50.886;4.332;2024-03-23T01:29:19;7.45;;;2.90;;
13493;SDS011;6819;50.886;4.332;2024-03-23T01:31:45;8.60;;;3.05;;
13493;SDS011;6819;50.886;4.332;2024-03-23T01:34:11;5.40;;;2.42;;
13493;SDS011;6819;50.886;4.332;2024-03-23T01:36:37;8.55;;;2.80;;
13493;SDS011;6819;50.886;4.332;2024-03-23T01:39:04;6.72;;;2.83;;
13493;SDS011;6819;50.886;4.332;2024-03-23T01:41:30;9.40;;;3.25;;
13493;SDS011;6819;50.886;4.332;2024-03-23T01:43:56;5.65;;;2.47;;
13493;SDS011;6819;50.886;4.332;2024-03-23T01:46:22;11.25;;;3.42;;
13493;SDS011;6819;50.886;4.332;2024-03-23T01:48:48;10.60;;;3.22;;
13493;SDS011;6819;50.886;4.332;2024-03-23T01:51:14;5.85;;;3.50;;
13493;SDS011;6819;50.886;4.332;2024-03-23T01:53:40;7.53;;;3.55;;
13493;SDS011;6819;50.886;4.332;2024-03-23T01:56:07;19.25;;;4.10;;
13493;SDS011;6819;50.886;4.332;2024-03-23T01:58:33;8.73;;;4.22;;
13493;SDS011;6819;50.886;4.332;2024-03-23T02:00:59;7.93;;;3.55;;
13493;SDS011;6819;50.886;4.332;2024-03-23T02:03:26;11.23;;;3.80;;
13493;SDS011;6819;50.886;4.332;2024-03-23T02:05:53;8.05;;;4.05;;
13493;SDS011;6819;50.886;4.332;2024-03-23T02:08:22;10.63;;;3.97;;
13493;SDS011;6819;50.886;4.332;2024-03-23T02:10:49;10.50;;;3.97;;
13493;SDS011;6819;50.886;4.332;2024-03-23T02:13:15;12.15;;;4.40;;
13493;SDS011;6819;50.886;4.332;2024-03-23T02:15:41;15.90;;;5.00;;
13493;SDS011;6819;50.886;4.332;2024-03-23T02:18:08;18.75;;;5.05;;
13493;SDS011;6819;50.886;4.332;2024-03-23T02:20:34;11.68;;;4.95;;
13493;SDS011;6819;50.886;4.332;2024-03-23T02:23:00;13.57;;;5.00;;
13493;SDS011;6819;50.886;4.332;2024-03-23T02:25:26;17.38;;;5.47;;
13493;SDS011;6819;50.886;4.332;2024-03-23T02:27:52;20.48;;;5.43;;
13493;SDS011;6819;50.886;4.332;2024-03-23T02:30:19;17.08;;;5.43;;
13493;SDS011;6819;50.886;4.332;2024-03-23T02:32:46;9.30;;;4.40;;
13493;SDS011;6819;50.886;4.332;2024-03-23T02:35:12;20.55;;;5.20;;
13493;SDS011;6819;50.886;4.332;2024-03-23T02:37:38;15.65;;;5.38;;
13493;SDS011;6819;50.886;4.332;2024-03-23T02:40:04;18.70;;;4.85;;
13493;SDS011;6819;50.886;4.332;2024-03-23T02:42:30;11.50;;;5.07;;
13493;SDS011;6819;50.886;4.332;2024-03-23T02:44:56;16.48;;;5.35;;
13493;SDS011;6819;50.886;4.332;2024-03-23T02:47:22;13.60;;;5.35;;
13493;SDS011;6819;50.886;4.332;2024-03-23T02:49:48;23.42;;;6.38;;
13493;SDS011;6819;50.886;4.332;2024-03-23T02:52:15;13.38;;;5.47;;
13493;SDS011;6819;50.886;4.332;2024-03-23T02:54:41;15.75;;;6.32;;
13493;SDS011;6819;50.886;4.332;2024-03-23T02:57:10;16.15;;;5.80;;
13493;SDS011;6819;50.886;4.332;2024-03-23T02:59:36;18.20;;;5.93;;
13493;SDS011;6819;50.886;4.332;2024-03-23T03:02:02;16.60;;;6.18;;
13493;SDS011;6819;50.886;4.332;2024-03-23T03:04:30;16.17;;;6.43;;
13493;SDS011;6819;50.886;4.332;2024-03-23T03:06:56;16.52;;;6.88;;
13493;SDS011;6819;50.886;4.332;2024-03-23T03:09:22;24.48;;;6.95;;
13493;SDS011;6819;50.886;4.332;2024-03-23T03:11:48;16.75;;;7.07;;
13493;SDS011;6819;50.886;4.332;2024-03-23T03:14:14;22.90;;;7.05;;
13493;SDS011;6819;50.886;4.332;2024-03-23T03:16:39;18.48;;;6.90;;
13493;SDS011;6819;50.886;4.332;2024-03-23T03:19:05;20.77;;;6.85;;
13493;SDS011;6819;50.886;4.332;2024-03-23T03:21:32;24.92;;;6.57;;
13493;SDS011;6819;50.886;4.332;2024-03-23T03:23:58;17.70;;;6.63;;
13493;SDS011;6819;50.886;4.332;2024-03-23T03:26:23;17.27;;;6.55;;
13493;SDS011;6819;50.886;4.332;2024-03-23T03:28:49;32.13;;;7.30;;
13493;SDS011;6819;50.886;4.332;2024-03-23T03:31:16;19.67;;;6.97;;
13493;SDS011;6819;50.886;4.332;2024-03-23T03:33:41;23.90;;;7.85;;
13493;SDS011;6819;50.886;4.332;2024-03-23T03:36:07;24.05;;;6.90;;
13493;SDS011;6819;50.886;4.332;2024-03-23T03:38:33;24.98;;;7.85;;
13493;SDS011;6819;50.886;4.332;2024-03-23T03:41:03;24.05;;;6.93;;
13493;SDS011;6819;50.886;4.332;2024-03-23T03:43:29;14.50;;;6.80;;
13493;SDS011;6819;50.886;4.332;2024-03-23T03:45:55;19.00;;;6.97;;
13493;SDS011;6819;50.886;4.332;2024-03-23T03:48:22;23.00;;;6.88;;
13493;SDS011;6819;50.886;4.332;2024-03-23T03:50:47;23.65;;;8.05;;
13493;SDS011;6819;50.886;4.332;2024-03-23T03:53:14;16.23;;;6.45;;
13493;SDS011;6819;50.886;4.332;2024-03-23T03:55:40;22.92;;;6.95;;
13493;SDS011;6819;50.886;4.332;2024-03-23T03:58:06;27.92;;;7.47;;
13493;SDS011;6819;50.886;4.332;2024-03-23T04:00:32;30.58;;;9.77;;
13493;SDS011;6819;50.886;4.332;2024-03-23T04:02:57;27.15;;;7.90;;
13493;SDS011;6819;50.886;4.332;2024-03-23T04:05:23;17.25;;;6.95;;
13493;SDS011;6819;50.886;4.332;2024-03-23T04:07:49;18.20;;;7.55;;
13493;SDS011;6819;50.886;4.332;2024-03-23T04:10:15;20.75;;;7.78;;
13493;SDS011;6819;50.886;4.332;2024-03-23T04:12:41;20.98;;;7.50;;
13493;SDS011;6819;50.886;4.332;2024-03-23T04:15:08;19.88;;;6.90;;
13493;SDS011;6819;50.886;4.332;2024-03-23T04:17:34;20.77;;;6.78;;
13493;SDS011;6819;50.886;4.332;2024-03-23T04:20:00;14.30;;;7.25;;
13493;SDS011;6819;50.886;4.332;2024-03-23T04:22:27;14.60;;;6.93;;
13493;SDS011;6819;50.886;4.332;2024-03-23T04:24:54;14.73;;;6.93;;
13493;SDS011;6819;50.886;4.332;2024-03-23T04:27:20;16.23;;;7.10;;
13493;SDS011;6819;50.886;4.332;2024-03-23T04:29:47;22.80;;;6.97;;
13493;SDS011;6819;50.886;4.332;2024-03-23T04:32:13;25.85;;;7.55;;
13493;SDS011;6819;50.886;4.332;2024-03-23T04:34:39;21.20;;;7.32;;
13493;SDS011;6819;50.886;4.332;2024-03-23T04:37:05;20.70;;;7.07;;
13493;SDS011;6819;50.886;4.332;2024-03-23T04:39:31;17.73;;;6.78;;
13493;SDS011;6819;50.886;4.332;2024-03-23T04:41:57;18.65;;;7.07;;
13493;SDS011;6819;50.886;4.332;2024-03-23T04:44:23;12.23;;;6.18;;
13493;SDS011;6819;50.886;4.332;2024-03-23T04:46:49;16.45;;;6.13;;
13493;SDS011;6819;50.886;4.332;2024-03-23T04:49:15;14.75;;;6.00;;
13493;SDS011;6819;50.886;4.332;2024-03-23T04:51:41;13.93;;;6.18;;
13493;SDS011;6819;50.886;4.332;2024-03-23T04:54:11;16.60;;;5.53;;
13493;SDS011;6819;50.886;4.332;2024-03-23T04:56:37;20.27;;;5.78;;
13493;SDS011;6819;50.886;4.332;2024-03-23T04:59:03;11.70;;;5.97;;
13493;SDS011;6819;50.886;4.332;2024-03-23T05:01:30;19.90;;;6.82;;
13493;SDS011;6819;50.886;4.332;2024-03-23T05:03:56;15.00;;;5.72;;
13493;SDS011;6819;50.886;4.332;2024-03-23T05:06:22;19.52;;;5.80;;
13493;SDS011;6819;50.886;4.332;2024-03-23T05:08:48;14.50;;;5.65;;
13493;SDS011;6819;50.886;4.332;2024-03-23T05:11:14;16.50;;;6.13;;
13493;SDS011;6819;50.886;4.332;2024-03-23T05:13:41;26.55;;;5.38;;
13493;SDS011;6819;50.886;4.332;2024-03-23T05:16:07;14.40;;;5.55;;
13493;SDS011;6819;50.886;4.332;2024-03-23T05:18:33;17.50;;;5.55;;
13493;SDS011;6819;50.886;4.332;2024-03-23T05:20:59;15.25;;;5.38;;
13493;SDS011;6819;50.886;4.332;2024-03-23T05:23:26;11.63;;;4.30;;
13493;SDS011;6819;50.886;4.332;2024-03-23T05:25:52;15.52;;;5.93;;
13493;SDS011;6819;50.886;4.332;2024-03-23T05:28:18;20.40;;;5.82;;
13493;SDS011;6819;50.886;4.332;2024-03-23T05:30:49;13.68;;;5.30;;
13493;SDS011;6819;50.886;4.332;2024-03-23T05:33:15;11.52;;;6.40;;
13493;SDS011;6819;50.886;4.332;2024-03-23T05:35:41;21.67;;;6.28;;
13493;SDS011;6819;50.886;4.332;2024-03-23T05:38:07;13.55;;;5.50;;
13493;SDS011;6819;50.886;4.332;2024-03-23T05:40:33;17.33;;;5.53;;
13493;SDS011;6819;50.886;4.332;2024-03-23T05:43:05;10.20;;;4.97;;
13493;SDS011;6819;50.886;4.332;2024-03-23T05:45:31;15.75;;;5.60;;
13493;SDS011;6819;50.886;4.332;2024-03-23T05:47:57;19.00;;;5.50;;
13493;SDS011;6819;50.886;4.332;2024-03-23T05:50:23;11.65;;;4.72;;
13493;SDS011;6819;50.886;4.332;2024-03-23T05:52:49;12.00;;;4.90;;
13493;SDS011;6819;50.886;4.332;2024-03-23T05:55:15;13.50;;;4.22;;
13493;SDS011;6819;50.886;4.332;2024-03-23T05:57:41;14.70;;;4.45;;
13493;SDS011;6819;50.886;4.332;2024-03-23T06:00:08;13.85;;;4.35;;
13493;SDS011;6819;50.886;4.332;2024-03-23T06:02:43;11.27;;;4.30;;
13493;SDS011;6819;50.886;4.332;2024-03-23T06:05:12;17.00;;;3.97;;
13493;SDS011;6819;50.886;4.332;2024-03-23T06:07:38;13.95;;;4.07;;
13493;SDS011;6819;50.886;4.332;2024-03-23T06:10:04;11.30;;;3.58;;
13493;SDS011;6819;50.886;4.332;2024-03-23T06:12:31;9.02;;;3.15;;
13493;SDS011;6819;50.886;4.332;2024-03-23T06:14:57;12.70;;;3.45;;
13493;SDS011;6819;50.886;4.332;2024-03-23T06:17:23;11.00;;;3.28;;
13493;SDS011;6819;50.886;4.332;2024-03-23T06:19:49;7.20;;;2.80;;
13493;SDS011;6819;50.886;4.332;2024-03-23T06:22:15;17.42;;;3.60;;
13493;SDS011;6819;50.886;4.332;2024-03-23T06:24:41;8.95;;;2.78;;
13493;SDS011;6819;50.886;4.332;2024-03-23T06:27:07;9.35;;;2.75;;
13493;SDS011;6819;50.886;4.332;2024-03-23T06:29:33;15.23;;;2.95;;
13493;SDS011;6819;50.886;4.332;2024-03-23T06:32:01;11.65;;;3.47;;
13493;SDS011;6819;50.886;4.332;2024-03-23T06:34:28;11.65;;;2.53;;
13493;SDS011;6819;50.886;4.332;2024-03-23T06:36:55;12.70;;;3.58;;
13493;SDS011;6819;50.886;4.332;2024-03-23T06:39:21;13.52;;;3.17;;
13493;SDS011;6819;50.886;4.332;2024-03-23T06:41:53;12.27;;;2.47;;
13493;SDS011;6819;50.886;4.332;2024-03-23T06:44:19;10.15;;;2.55;;
13493;SDS011;6819;50.886;4.332;2024-03-23T06:46:46;12.52;;;2.50;;
13493;SDS011;6819;50.886;4.332;2024-03-23T06:49:13;13.35;;;2.58;;
13493;SDS011;6819;50.886;4.332;2024-03-23T06:51:40;9.35;;;2.05;;
13493;SDS011;6819;50.886;4.332;2024-03-23T06:54:06;10.80;;;2.92;;
13493;SDS011;6819;50.886;4.332;2024-03-23T06:56:32;11.75;;;2.33;;
13493;SDS011;6819;50.886;4.332;2024-03-23T06:58:58;13.10;;;2.67;;
13493;SDS011;6819;50.886;4.332;2024-03-23T07:01:25;13.65;;;3.28;;
13493;SDS011;6819;50.886;4.332;2024-03-23T07:03:51;7.57;;;2.38;;
13493;SDS011;6819;50.886;4.332;2024-03-23T07:06:17;6.47;;;2.20;;
13493;SDS011;6819;50.886;4.332;2024-03-23T07:08:43;12.65;;;2.15;;
13493;SDS011;6819;50.886;4.332;2024-03-23T07:11:09;7.82;;;2.63;;
13493;SDS011;6819;50.886;4.332;2024-03-23T07:13:35;16.65;;;2.55;;
13493;SDS011;6819;50.886;4.332;2024-03-23T07:16:00;10.88;;;2.20;;
13493;SDS011;6819;50.886;4.332;2024-03-23T07:18:26;5.82;;;2.17;;
13493;SDS011;6819;50.886;4.332;2024-03-23T07:20:54;7.18;;;1.77;;
13493;SDS011;6819;50.886;4.332;2024-03-23T07:23:21;5.07;;;1.70;;
13493;SDS011;6819;50.886;4.332;2024-03-23T07:25:56;11.60;;;1.88;;
13493;SDS011;6819;50.886;4.332;2024-03-23T07:28:23;4.90;;;1.45;;
13493;SDS011;6819;50.886;4.332;2024-03-23T07:31:00;5.88;;;1.70;;
13493;SDS011;6819;50.886;4.332;2024-03-23T07:33:26;5.90;;;1.48;;
13493;SDS011;6819;50.886;4.332;2024-03-23T07:35:52;11.75;;;1.75;;
13493;SDS011;6819;50.886;4.332;2024-03-23T07:38:18;6.05;;;2.08;;
13493;SDS011;6819;50.886;4.332;2024-03-23T07:40:44;8.63;;;2.15;;
13493;SDS011;6819;50.886;4.332;2024-03-23T07:43:10;10.13;;;2.65;;
13493;SDS011;6819;50.886;4.332;2024-03-23T07:45:36;8.27;;;2.10;;
13493;SDS011;6819;50.886;4.332;2024-03-23T07:48:03;14.45;;;3.03;;
13493;SDS011;6819;50.886;4.332;2024-03-23T07:50:29;12.40;;;2.17;;
13493;SDS011;6819;50.886;4.332;2024-03-23T07:52:55;6.70;;;2.03;;
13493;SDS011;6819;50.886;4.332;2024-03-23T07:55:21;9.13;;;2.60;;
13493;SDS011;6819;50.886;4.332;2024-03-23T07:57:47;14.32;;;2.20;;
13493;SDS011;6819;50.886;4.332;2024-03-23T08:00:13;9.30;;;2.53;;
13493;SDS011;6819;50.886;4.332;2024-03-23T08:02:39;13.13;;;2.20;;
13493;SDS011;6819;50.886;4.332;2024-03-23T08:05:05;10.98;;;2.58;;
13493;SDS011;6819;50.886;4.332;2024-03-23T08:07:32;10.85;;;2.40;;
13493;SDS011;6819;50.886;4.332;2024-03-23T08:09:58;12.18;;;2.50;;
13493;SDS011;6819;50.886;4.332;2024-03-23T08:12:25;14.18;;;2.28;;
13493;SDS011;6819;50.886;4.332;2024-03-23T08:14:51;8.10;;;2.45;;
13493;SDS011;6819;50.886;4.332;2024-03-23T08:17:17;14.93;;;2.30;;
13493;SDS011;6819;50.886;4.332;2024-03-23T08:19:43;8.27;;;2.20;;
13493;SDS011;6819;50.886;4.332;2024-03-23T08:22:09;9.52;;;2.30;;
13493;SDS011;6819;50.886;4.332;2024-03-23T08:24:35;14.35;;;3.20;;
13493;SDS011;6819;50.886;4.332;2024-03-23T08:27:01;9.45;;;2.80;;
13493;SDS011;6819;50.886;4.332;2024-03-23T08:29:27;16.05;;;2.50;;
13493;SDS011;6819;50.886;4.332;2024-03-23T08:31:53;12.10;;;3.00;;
13493;SDS011;6819;50.886;4.332;2024-03-23T08:34:19;9.30;;;2.10;;
13493;SDS011;6819;50.886;4.332;2024-03-23T08:36:45;9.18;;;2.35;;
13493;SDS011;6819;50.886;4.332;2024-03-23T08:39:11;4.32;;;1.98;;
13493;SDS011;6819;50.886;4.332;2024-03-23T08:41:37;14.57;;;2.60;;
13493;SDS011;6819;50.886;4.332;2024-03-23T08:44:03;6.35;;;1.85;;
13493;SDS011;6819;50.886;4.332;2024-03-23T08:46:29;7.68;;;2.25;;
13493;SDS011;6819;50.886;4.332;2024-03-23T08:48:55;9.05;;;2.15;;
13493;SDS011;6819;50.886;4.332;2024-03-23T08:51:21;5.75;;;2.47;;
13493;SDS011;6819;50.886;4.332;2024-03-23T08:53:47;7.22;;;2.15;;
13493;SDS011;6819;50.886;4.332;2024-03-23T08:56:13;8.35;;;2.35;;
13493;SDS011;6819;50.886;4.332;2024-03-23T08:58:39;11.23;;;2.20;;
13493;SDS011;6819;50.886;4.332;2024-03-23T09:01:09;12.40;;;2.05;;
13493;SDS011;6819;50.886;4.332;2024-03-23T09:03:35;6.30;;;2.25;;
13493;SDS011;6819;50.886;4.332;2024-03-23T09:06:08;7.82;;;1.80;;
13493;SDS011;6819;50.886;4.332;2024-03-23T09:08:34;11.10;;;2.10;;
13493;SDS011;6819;50.886;4.332;2024-03-23T09:11:05;11.00;;;2.10;;
13493;SDS011;6819;50.886;4.332;2024-03-23T09:13:32;10.65;;;2.33;;
13493;SDS011;6819;50.886;4.332;2024-03-23T09:15:58;10.15;;;2.00;;
13493;SDS011;6819;50.886;4.332;2024-03-23T09:18:25;7.97;;;2.20;;
13493;SDS011;6819;50.886;4.332;2024-03-23T09:20:51;12.23;;;2.08;;
13493;SDS011;6819;50.886;4.332;2024-03-23T09:23:19;6.05;;;1.60;;
13493;SDS011;6819;50.886;4.332;2024-03-23T09:25:46;9.98;;;2.00;;
13493;SDS011;6819;50.886;4.332;2024-03-23T09:28:12;9.48;;;2.50;;
13493;SDS011;6819;50.886;4.332;2024-03-23T09:30:37;10.32;;;2.10;;
13493;SDS011;6819;50.886;4.332;2024-03-23T09:33:07;12.50;;;2.28;;
13493;SDS011;6819;50.886;4.332;2024-03-23T09:35:36;8.07;;;2.05;;
13493;SDS011;6819;50.886;4.332;2024-03-23T09:38:05;7.18;;;2.22;;
13493;SDS011;6819;50.886;4.332;2024-03-23T09:40:43;10.73;;;2.17;;
13493;SDS011;6819;50.886;4.332;2024-03-23T09:43:10;13.32;;;2.10;;
13493;SDS011;6819;50.886;4.332;2024-03-23T09:45:40;10.05;;;2.47;;
13493;SDS011;6819;50.886;4.332;2024-03-23T09:48:09;11.45;;;2.53;;
13493;SDS011;6819;50.886;4.332;2024-03-23T09:50:38;8.88;;;2.67;;
13493;SDS011;6819;50.886;4.332;2024-03-23T09:53:08;7.55;;;3.03;;
13493;SDS011;6819;50.886;4.332;2024-03-23T09:55:35;8.55;;;2.25;;
13493;SDS011;6819;50.886;4.332;2024-03-23T09:58:02;10.07;;;2.55;;
13493;SDS011;6819;50.886;4.332;2024-03-23T10:00:30;9.48;;;2.65;;
13493;SDS011;6819;50.886;4.332;2024-03-23T10:02:56;10.23;;;2.55;;
13493;SDS011;6819;50.886;4.332;2024-03-23T10:05:26;9.27;;;2.60;;
13493;SDS011;6819;50.886;4.332;2024-03-23T10:07:53;11.73;;;3.20;;
13493;SDS011;6819;50.886;4.332;2024-03-23T10:10:21;8.75;;;2.45;;
13493;SDS011;6819;50.886;4.332;2024-03-23T10:12:48;11.95;;;2.60;;
13493;SDS011;6819;50.886;4.332;2024-03-23T10:15:18;5.22;;;2.67;;
13493;SDS011;6819;50.886;4.332;2024-03-23T10:17:45;6.63;;;2.42;;
13493;SDS011;6819;50.886;4.332;2024-03-23T10:20:12;8.20;;;2.30;;
13493;SDS011;6819;50.886;4.332;2024-03-23T10:22:49;12.73;;;2.45;;
13493;SDS011;6819;50.886;4.332;2024-03-23T10:25:16;9.90;;;2.45;;
13493;SDS011;6819;50.886;4.332;2024-03-23T10:27:43;6.70;;;2.20;;
13493;SDS011;6819;50.886;4.332;2024-03-23T10:30:12;5.78;;;2.10;;
13493;SDS011;6819;50.886;4.332;2024-03-23T10:32:41;8.48;;;2.33;;
13493;SDS011;6819;50.886;4.332;2024-03-23T10:35:14;7.57;;;1.90;;
13493;SDS011;6819;50.886;4.332;2024-03-23T10:37:51;6.60;;;2.08;;
13493;SDS011;6819;50.886;4.332;2024-03-23T10:40:20;5.70;;;2.20;;
13493;SDS011;6819;50.886;4.332;2024-03-23T10:42:46;7.80;;;1.95;;
13493;SDS011;6819;50.886;4.332;2024-03-23T10:45:12;6.00;;;1.95;;
13493;SDS011;6819;50.886;4.332;2024-03-23T10:47:38;5.50;;;1.65;;
13493;SDS011;6819;50.886;4.332;2024-03-23T10:50:04;5.35;;;1.70;;
13493;SDS011;6819;50.886;4.332;2024-03-23T10:52:31;4.32;;;1.50;;
13493;SDS011;6819;50.886;4.332;2024-03-23T10:54:57;9.52;;;2.15;;
13493;SDS011;6819;50.886;4.332;2024-03-23T10:57:29;8.20;;;1.65;;
13493;SDS011;6819;50.886;4.332;2024-03-23T10:59:58;4.32;;;1.33;;
13493;SDS011;6819;50.886;4.332;2024-03-23T11:02:24;1.98;;;1.15;;
13493;SDS011;6819;50.886;4.332;2024-03-23T11:04:53;6.30;;;1.38;;
13493;SDS011;6819;50.886;4.332;2024-03-23T11:09:46;3.80;;;1.17;;
13493;SDS011;6819;50.886;4.332;2024-03-23T11:14:44;5.18;;;1.48;;
13493;SDS011;6819;50.886;4.332;2024-03-23T11:17:10;4.63;;;1.08;;
13493;SDS011;6819;50.886;4.332;2024-03-23T11:19:36;5.93;;;1.38;;
13493;SDS011;6819;50.886;4.332;2024-03-23T11:22:03;9.52;;;1.63;;
13493;SDS011;6819;50.886;4.332;2024-03-23T11:24:30;6.35;;;1.20;;
13493;SDS011;6819;50.886;4.332;2024-03-23T11:26:56;4.03;;;1.08;;
13493;SDS011;6819;50.886;4.332;2024-03-23T11:29:29;8.02;;;1.50;;
13493;SDS011;6819;50.886;4.332;2024-03-23T11:31:55;5.00;;;1.13;;
13493;SDS011;6819;50.886;4.332;2024-03-23T11:34:22;6.45;;;1.17;;
13493;SDS011;6819;50.886;4.332;2024-03-23T11:36:48;5.57;;;1.42;;
13493;SDS011;6819;50.886;4.332;2024-03-23T11:39:18;9.68;;;1.90;;
13493;SDS011;6819;50.886;4.332;2024-03-23T11:41:51;6.53;;;1.88;;
13493;SDS011;6819;50.886;4.332;2024-03-23T11:44:27;9.38;;;1.65;;
13493;SDS011;6819;50.886;4.332;2024-03-23T11:46:53;5.65;;;1.30;;
13493;SDS011;6819;50.886;4.332;2024-03-23T11:49:28;4.57;;;1.20;;
13493;SDS011;6819;50.886;4.332;2024-03-23T11:51:55;9.45;;;1.50;;
13493;SDS011;6819;50.886;4.332;2024-03-23T11:54:22;6.47;;;1.65;;
13493;SDS011;6819;50.886;4.332;2024-03-23T11:56:58;4.03;;;1.30;;
13493;SDS011;6819;50.886;4.332;2024-03-23T11:59:37;6.93;;;1.27;;
13493;SDS011;6819;50.886;4.332;2024-03-23T12:02:06;6.82;;;1.10;;
13493;SDS011;6819;50.886;4.332;2024-03-23T12:04:33;4.72;;;1.40;;
13493;SDS011;6819;50.886;4.332;2024-03-23T12:09:39;4.53;;;1.38;;
13493;SDS011;6819;50.886;4.332;2024-03-23T12:12:10;6.35;;;1.05;;
13493;SDS011;6819;50.886;4.332;2024-03-23T12:14:36;4.82;;;0.80;;
13493;SDS011;6819;50.886;4.332;2024-03-23T12:17:35;3.00;;;0.80;;
13493;SDS011;6819;50.886;4.332;2024-03-23T12:19:54;2.92;;;0.80;;
13493;SDS011;6819;50.886;4.332;2024-03-23T12:22:20;4.38;;;1.02;;
13493;SDS011;6819;50.886;4.332;2024-03-23T12:24:47;2.15;;;0.68;;
13493;SDS011;6819;50.886;4.332;2024-03-23T12:27:13;3.75;;;0.93;;
13493;SDS011;6819;50.886;4.332;2024-03-23T12:29:39;3.80;;;1.10;;
13493;SDS011;6819;50.886;4.332;2024-03-23T12:32:08;3.15;;;0.85;;
13493;SDS011;6819;50.886;4.332;2024-03-23T12:34:34;2.45;;;1.00;;
13493;SDS011;6819;50.886;4.332;2024-03-23T12:37:00;8.07;;;1.42;;
13493;SDS011;6819;50.886;4.332;2024-03-23T12:39:26;4.70;;;1.42;;
13493;SDS011;6819;50.886;4.332;2024-03-23T12:41:53;7.75;;;1.58;;
13493;SDS011;6819;50.886;4.332;2024-03-23T12:44:19;9.57;;;1.70;;
13493;SDS011;6819;50.886;4.332;2024-03-23T12:46:45;4.35;;;1.02;;
13493;SDS011;6819;50.886;4.332;2024-03-23T12:49:11;7.40;;;1.40;;
13493;SDS011;6819;50.886;4.332;2024-03-23T12:51:37;8.93;;;1.67;;
13493;SDS011;6819;50.886;4.332;2024-03-23T12:54:03;4.90;;;1.70;;
13493;SDS011;6819;50.886;4.332;2024-03-23T12:56:30;7.05;;;1.55;;
13493;SDS011;6819;50.886;4.332;2024-03-23T12:58:56;10.55;;;2.90;;
13493;SDS011;6819;50.886;4.332;2024-03-23T13:01:25;5.80;;;1.85;;
13493;SDS011;6819;50.886;4.332;2024-03-23T13:03:51;10.07;;;1.90;;
13493;SDS011;6819;50.886;4.332;2024-03-23T13:06:18;9.15;;;1.40;;
13493;SDS011;6819;50.886;4.332;2024-03-23T13:08:44;10.82;;;2.85;;
13493;SDS011;6819;50.886;4.332;2024-03-23T13:11:10;4.43;;;1.27;;
13493;SDS011;6819;50.886;4.332;2024-03-23T13:13:37;3.67;;;1.38;;
13493;SDS011;6819;50.886;4.332;2024-03-23T13:16:03;4.32;;;0.98;;
13493;SDS011;6819;50.886;4.332;2024-03-23T13:18:30;4.22;;;1.10;;
13493;SDS011;6819;50.886;4.332;2024-03-23T13:20:56;3.97;;;1.15;;
13493;SDS011;6819;50.886;4.332;2024-03-23T13:23:22;3.05;;;1.17;;
13493;SDS011;6819;50.886;4.332;2024-03-23T13:25:51;6.15;;;1.15;;
13493;SDS011;6819;50.886;4.332;2024-03-23T13:28:18;6.63;;;1.05;;
13493;SDS011;6819;50.886;4.332;2024-03-23T13:30:54;4.53;;;1.20;;
13493;SDS011;6819;50.886;4.332;2024-03-23T13:33:20;1.90;;;0.60;;
13493;SDS011;6819;50.886;4.332;2024-03-23T13:35:52;8.90;;;1.60;;
13493;SDS011;6819;50.886;4.332;2024-03-23T13:38:19;5.72;;;1.40;;
13493;SDS011;6819;50.886;4.332;2024-03-23T13:40:55;2.88;;;1.33;;
13493;SDS011;6819;50.886;4.332;2024-03-23T13:43:21;5.07;;;1.33;;
13493;SDS011;6819;50.886;4.332;2024-03-23T13:45:48;5.05;;;1.10;;
13493;SDS011;6819;50.886;4.332;2024-03-23T13:48:15;3.92;;;1.10;;
13493;SDS011;6819;50.886;4.332;2024-03-23T13:50:41;9.57;;;1.20;;
13493;SDS011;6819;50.886;4.332;2024-03-23T13:53:07;2.55;;;1.17;;
13493;SDS011;6819;50.886;4.332;2024-03-23T13:55:34;3.83;;;1.13;;
13493;SDS011;6819;50.886;4.332;2024-03-23T13:58:00;4.20;;;1.08;;
13493;SDS011;6819;50.886;4.332;2024-03-23T14:00:26;6.07;;;1.23;;
13493;SDS011;6819;50.886;4.332;2024-03-23T14:02:52;4.88;;;1.95;;
13493;SDS011;6819;50.886;4.332;2024-03-23T14:05:18;3.20;;;1.10;;
13493;SDS011;6819;50.886;4.332;2024-03-23T14:07:44;6.13;;;1.40;;
13493;SDS011;6819;50.886;4.332;2024-03-23T14:10:10;6.82;;;1.65;;
13493;SDS011;6819;50.886;4.332;2024-03-23T14:12:36;5.82;;;1.50;;
13493;SDS011;6819;50.886;4.332;2024-03-23T14:15:06;7.25;;;1.73;;
13493;SDS011;6819;50.886;4.332;2024-03-23T14:17:32;7.43;;;2.00;;
13493;SDS011;6819;50.886;4.332;2024-03-23T14:19:58;7.60;;;2.00;;
13493;SDS011;6819;50.886;4.332;2024-03-23T14:22:30;6.88;;;1.58;;
13493;SDS011;6819;50.886;4.332;2024-03-23T14:24:56;3.85;;;0.95;;
13493;SDS011;6819;50.886;4.332;2024-03-23T14:27:22;3.55;;;1.38;;
13493;SDS011;6819;50.886;4.332;2024-03-23T14:29:48;3.58;;;1.08;;
13493;SDS011;6819;50.886;4.332;2024-03-23T14:32:14;7.18;;;1.48;;
13493;SDS011;6819;50.886;4.332;2024-03-23T14:34:41;5.35;;;1.20;;
13493;SDS011;6819;50.886;4.332;2024-03-23T14:37:07;5.18;;;1.63;;
13493;SDS011;6819;50.886;4.332;2024-03-23T14:39:33;6.38;;;1.27;;
13493;SDS011;6819;50.886;4.332;2024-03-23T14:42:06;3.55;;;1.40;;
13493;SDS011;6819;50.886;4.332;2024-03-23T14:44:35;2.50;;;1.20;;
13493;SDS011;6819;50.886;4.332;2024-03-23T14:47:01;4.28;;;1.10;;
13493;SDS011;6819;50.886;4.332;2024-03-23T14:49:27;2.28;;;1.17;;
13493;SDS011;6819;50.886;4.332;2024-03-23T14:51:53;4.35;;;1.30;;
13493;SDS011;6819;50.886;4.332;2024-03-23T14:54:19;5.35;;;1.35;;
13493;SDS011;6819;50.886;4.332;2024-03-23T14:56:45;4.85;;;1.58;;
13493;SDS011;6819;50.886;4.332;2024-03-23T14:59:12;7.10;;;1.55;;
13493;SDS011;6819;50.886;4.332;2024-03-23T15:01:38;2.72;;;1.10;;
13493;SDS011;6819;50.886;4.332;2024-03-23T15:04:04;6.03;;;1.17;;
13493;SDS011;6819;50.886;4.332;2024-03-23T15:06:30;5.30;;;1.55;;
13493;SDS011;6819;50.886;4.332;2024-03-23T15:08:58;4.65;;;1.42;;
13493;SDS011;6819;50.886;4.332;2024-03-23T15:11:28;10.95;;;1.52;;
13493;SDS011;6819;50.886;4.332;2024-03-23T15:13:54;5.25;;;1.40;;
13493;SDS011;6819;50.886;4.332;2024-03-23T15:16:20;6.75;;;1.60;;
13493;SDS011;6819;50.886;4.332;2024-03-23T15:18:46;3.83;;;1.27;;
13493;SDS011;6819;50.886;4.332;2024-03-23T15:21:12;3.28;;;1.02;;
13493;SDS011;6819;50.886;4.332;2024-03-23T15:23:44;4.32;;;1.42;;
13493;SDS011;6819;50.886;4.332;2024-03-23T15:26:10;4.32;;;1.40;;
13493;SDS011;6819;50.886;4.332;2024-03-23T15:28:36;9.40;;;1.30;;
13493;SDS011;6819;50.886;4.332;2024-03-23T15:31:06;4.10;;;1.42;;
13493;SDS011;6819;50.886;4.332;2024-03-23T15:33:33;6.05;;;1.20;;
13493;SDS011;6819;50.886;4.332;2024-03-23T15:35:59;2.97;;;1.20;;
13493;SDS011;6819;50.886;4.332;2024-03-23T15:38:26;2.00;;;1.30;;
13493;SDS011;6819;50.886;4.332;2024-03-23T15:40:52;5.20;;;1.60;;
13493;SDS011;6819;50.886;4.332;2024-03-23T15:43:18;5.38;;;1.60;;
13493;SDS011;6819;50.886;4.332;2024-03-23T15:45:44;7.00;;;1.70;;
13493;SDS011;6819;50.886;4.332;2024-03-23T15:48:19;3.10;;;1.25;;
13493;SDS011;6819;50.886;4.332;2024-03-23T15:50:52;9.27;;;2.08;;
13493;SDS011;6819;50.886;4.332;2024-03-23T15:53:19;2.90;;;1.33;;